createdAt,value
2018-07-28T00:00:49.720Z,56.60
2018-07-28T00:03:18.128Z,56.50
2018-07-28T00:05:47.693Z,56.60
2018-07-28T00:08:16.037Z,56.60
2018-07-28T00:10:44.344Z,56.60
2018-07-28T00:13:12.772Z,56.80
2018-07-28T00:15:41.276Z,57.40
2018-07-28T00:20:37.743Z,56.90
2018-07-28T00:23:06.303Z,56.90
2018-07-28T00:25:42.715Z,56.90
2018-07-28T00:28:11.455Z,57.20
2018-07-28T00:30:39.846Z,57.70
2018-07-28T00:33:08.196Z,57.90
2018-07-28T00:35:36.899Z,58.10
2018-07-28T00:38:05.327Z,58.10
2018-07-28T00:40:33.760Z,58.40
2018-07-28T00:43:02.505Z,58.50
2018-07-28T00:45:30.820Z,58.60
2018-07-28T00:47:59.142Z,58.90
2018-07-28T00:50:27.488Z,59.10
2018-07-28T00:52:55.892Z,59.20
2018-07-28T00:55:24.240Z,59.30
2018-07-28T00:57:52.663Z,59.30
2018-07-28T01:00:21.048Z,59.80
2018-07-28T01:02:49.524Z,59.40
2018-07-28T01:05:17.891Z,59.50
2018-07-28T01:07:46.392Z,59.70
2018-07-28T01:10:14.772Z,59.90
2018-07-28T01:12:43.338Z,60.20
2018-07-28T01:15:12.679Z,60.70
2018-07-28T01:17:41.188Z,60.90
2018-07-28T01:20:10.898Z,61.10
2018-07-28T01:22:39.973Z,61.10
2018-07-28T01:25:09.848Z,61.30
2018-07-28T01:27:38.365Z,61.50
2018-07-28T01:30:08.453Z,61.60
2018-07-28T01:32:36.765Z,61.40
2018-07-28T01:35:05.899Z,61.20
2018-07-28T01:37:34.297Z,61.30
2018-07-28T01:40:03.446Z,61.20
2018-07-28T01:42:31.856Z,61.20
2018-07-28T01:45:00.212Z,61.70
2018-07-28T01:47:28.728Z,62.30
2018-07-28T01:49:57.104Z,62.50
2018-07-28T01:52:25.556Z,62.50
2018-07-28T01:54:53.934Z,62.50
2018-07-28T01:57:22.315Z,62.90
2018-07-28T01:59:50.788Z,62.70
2018-07-28T02:02:19.222Z,62.70
2018-07-28T02:04:47.647Z,62.90
2018-07-28T02:07:15.951Z,63.00
2018-07-28T02:09:44.628Z,63.10
2018-07-28T02:12:12.963Z,63.00
2018-07-28T02:14:41.329Z,62.60
2018-07-28T02:17:09.791Z,62.50
2018-07-28T02:19:38.128Z,62.50
2018-07-28T02:22:06.616Z,62.70
2018-07-28T02:24:35.018Z,62.70
2018-07-28T02:27:05.454Z,62.60
2018-07-28T02:29:34.700Z,62.90
2018-07-28T02:32:03.041Z,63.30
2018-07-28T02:34:31.512Z,63.60
2018-07-28T02:36:59.876Z,63.70
2018-07-28T02:39:28.285Z,64.30
2018-07-28T02:41:56.701Z,63.60
2018-07-28T02:44:25.104Z,63.70
2018-07-28T02:46:53.468Z,63.80
2018-07-28T02:49:21.876Z,63.80
2018-07-28T02:51:51.110Z,63.90
2018-07-28T02:54:19.748Z,63.70
2018-07-28T02:56:49.235Z,63.50
2018-07-28T02:59:17.661Z,63.40
2018-07-28T03:01:46.134Z,63.20
2018-07-28T03:04:14.583Z,63.20
2018-07-28T03:06:43.116Z,63.10
2018-07-28T03:09:13.953Z,63.30
2018-07-28T03:11:42.420Z,63.20
2018-07-28T03:14:11.094Z,63.10
2018-07-28T03:16:39.873Z,63.10
2018-07-28T03:19:08.297Z,63.00
2018-07-28T03:21:36.692Z,63.00
2018-07-28T03:24:08.125Z,63.30
2018-07-28T03:26:37.532Z,63.30
2018-07-28T03:29:08.454Z,63.60
2018-07-28T03:31:37.054Z,64.10
2018-07-28T03:34:08.453Z,64.50
2018-07-28T03:36:37.160Z,64.50
2018-07-28T03:39:07.848Z,64.50
2018-07-28T03:41:36.384Z,64.60
2018-07-28T03:44:04.797Z,65.00
2018-07-28T03:46:33.126Z,65.20
2018-07-28T03:49:01.456Z,65.60
2018-07-28T03:51:29.956Z,65.90
2018-07-28T03:53:58.355Z,65.80
2018-07-28T03:56:26.703Z,65.90
2018-07-28T03:58:55.049Z,65.70
2018-07-28T04:01:23.404Z,65.70
2018-07-28T04:03:51.820Z,65.70
2018-07-28T04:06:20.213Z,65.80
2018-07-28T04:08:48.735Z,66.10
2018-07-28T04:11:17.093Z,66.10
2018-07-28T04:13:45.416Z,66.20
2018-07-28T04:16:13.702Z,66.20
2018-07-28T04:18:42.288Z,66.30
2018-07-28T04:21:12.154Z,66.60
2018-07-28T04:23:40.553Z,66.70
2018-07-28T04:26:12.766Z,67.00
2018-07-28T04:28:42.290Z,66.90
2018-07-28T04:31:11.194Z,67.20
2018-07-28T04:33:39.601Z,67.00
2018-07-28T04:36:08.048Z,67.20
2018-07-28T04:38:37.204Z,67.10
2018-07-28T04:41:05.581Z,67.20
2018-07-28T04:43:34.054Z,67.50
2018-07-28T04:46:03.976Z,67.70
2018-07-28T04:48:34.417Z,67.70
2018-07-28T04:51:13.152Z,67.30
2018-07-28T04:53:43.283Z,67.30
2018-07-28T04:56:11.704Z,66.90
2018-07-28T04:58:40.116Z,67.00
2018-07-28T05:01:08.569Z,66.80
2018-07-28T05:03:40.879Z,67.30
2018-07-28T05:06:09.257Z,66.90
2018-07-28T05:08:37.657Z,66.40
2018-07-28T05:11:07.732Z,66.10
2018-07-28T05:13:36.204Z,66.20
2018-07-28T05:16:04.660Z,66.40
2018-07-28T05:21:01.394Z,66.60
2018-07-28T05:23:29.883Z,66.60
2018-07-28T05:25:58.264Z,66.30
2018-07-28T05:28:26.704Z,66.50
2018-07-28T05:30:55.319Z,66.50
2018-07-28T05:33:23.659Z,66.20
2018-07-28T05:35:52.065Z,66.30
2018-07-28T05:38:20.449Z,66.00
2018-07-28T05:40:48.852Z,66.50
2018-07-28T05:43:17.300Z,66.50
2018-07-28T05:45:45.685Z,66.50
2018-07-28T05:48:14.257Z,66.50
2018-07-28T05:50:42.880Z,66.10
2018-07-28T05:53:11.279Z,66.30
2018-07-28T05:55:39.607Z,65.80
2018-07-28T05:58:08.068Z,65.60
2018-07-28T06:00:36.405Z,65.30
2018-07-28T06:03:06.585Z,65.40
2018-07-28T06:05:36.283Z,65.30
2018-07-28T06:08:05.002Z,64.60
2018-07-28T06:10:33.362Z,64.70
2018-07-28T06:13:01.729Z,64.60
2018-07-28T06:15:30.116Z,64.00
2018-07-28T06:17:58.507Z,63.90
2018-07-28T06:20:26.933Z,63.90
2018-07-28T06:22:55.416Z,63.70
2018-07-28T06:25:23.823Z,63.20
2018-07-28T06:27:52.261Z,63.60
2018-07-28T06:30:20.692Z,63.20
2018-07-28T06:32:49.040Z,62.30
2018-07-28T06:35:17.400Z,62.60
2018-07-28T06:37:45.728Z,63.00
2018-07-28T06:40:14.143Z,61.80
2018-07-28T06:42:42.562Z,61.60
2018-07-28T06:45:10.892Z,61.40
2018-07-28T06:47:39.535Z,61.60
2018-07-28T06:50:07.899Z,61.40
2018-07-28T06:52:36.191Z,61.10
2018-07-28T06:55:04.514Z,60.90
2018-07-28T06:57:32.831Z,60.60
2018-07-28T07:00:01.172Z,60.40
2018-07-28T07:02:29.521Z,60.20
2018-07-28T07:04:58.393Z,60.40
2018-07-28T07:07:26.838Z,59.90
2018-07-28T07:09:57.418Z,60.50
2018-07-28T07:12:25.781Z,60.40
2018-07-28T07:14:56.978Z,60.60
2018-07-28T07:17:27.589Z,59.90
2018-07-28T07:19:56.013Z,59.40
2018-07-28T07:22:25.972Z,59.90
2018-07-28T07:24:55.583Z,59.90
2018-07-28T07:27:24.716Z,59.50
2018-07-28T07:29:53.848Z,59.20
2018-07-28T07:32:22.317Z,59.20
2018-07-28T07:34:51.430Z,59.90
2018-07-28T07:37:20.100Z,60.10
2018-07-28T07:39:48.672Z,60.50
2018-07-28T07:42:17.876Z,59.90
2018-07-28T07:44:46.272Z,60.30
2018-07-28T07:47:14.802Z,59.10
2018-07-28T07:49:43.276Z,60.50
2018-07-28T07:52:11.695Z,59.10
2018-07-28T07:54:40.028Z,59.60
2018-07-28T07:57:09.292Z,59.40
2018-07-28T07:59:39.409Z,58.60
2018-07-28T08:02:07.873Z,58.40
2018-07-28T08:04:36.240Z,59.00
2018-07-28T08:07:05.607Z,57.80
2018-07-28T08:09:33.971Z,57.30
2018-07-28T08:14:31.746Z,57.10
2018-07-28T08:17:00.224Z,56.30
2018-07-28T08:19:28.584Z,55.70
2018-07-28T08:21:57.960Z,56.30
2018-07-28T08:24:46.417Z,56.60
2018-07-28T08:27:15.513Z,55.90
2018-07-28T08:29:45.032Z,56.50
2018-07-28T08:32:13.498Z,56.10
2018-07-28T08:34:41.997Z,56.40
2018-07-28T08:37:10.586Z,56.30
2018-07-28T08:39:39.002Z,55.80
2018-07-28T08:42:07.384Z,55.90
2018-07-28T08:44:35.792Z,55.90
2018-07-28T08:47:04.112Z,56.80
2018-07-28T08:49:32.524Z,55.30
2018-07-28T08:52:00.880Z,54.90
2018-07-28T08:54:29.392Z,54.40
2018-07-28T08:56:57.854Z,54.70
2018-07-28T08:59:26.413Z,55.10
2018-07-28T09:01:54.895Z,54.20
2018-07-28T09:04:23.428Z,54.80
2018-07-28T09:06:52.379Z,55.00
2018-07-28T09:09:22.528Z,54.90
2018-07-28T09:11:51.229Z,55.50
2018-07-28T09:14:19.742Z,55.30
2018-07-28T09:16:48.371Z,55.60
2018-07-28T09:19:16.868Z,56.00
2018-07-28T09:21:45.255Z,56.40
2018-07-28T09:24:13.716Z,56.90
2018-07-28T09:26:42.150Z,56.90
2018-07-28T09:29:10.602Z,56.60
2018-07-28T09:31:38.912Z,56.30
2018-07-28T09:34:07.365Z,56.10
2018-07-28T09:36:35.844Z,56.20
2018-07-28T09:39:06.492Z,56.80
2018-07-28T09:41:34.916Z,56.30
2018-07-28T09:44:03.344Z,55.80
2018-07-28T09:46:31.758Z,56.00
2018-07-28T09:49:00.347Z,55.60
2018-07-28T09:51:28.789Z,55.90
2018-07-28T09:53:57.297Z,55.90
2018-07-28T09:56:25.740Z,54.90
2018-07-28T09:58:54.124Z,54.90
2018-07-28T10:01:23.229Z,55.60
2018-07-28T10:03:52.412Z,54.40
2018-07-28T10:06:20.910Z,54.50
2018-07-28T10:08:49.484Z,54.20
2018-07-28T10:11:17.932Z,54.10
2018-07-28T10:13:46.455Z,55.00
2018-07-28T10:16:14.848Z,55.00
2018-07-28T10:18:43.179Z,55.70
2018-07-28T10:21:11.569Z,55.80
2018-07-28T10:23:39.960Z,56.00
2018-07-28T10:26:08.359Z,55.90
2018-07-28T10:28:36.724Z,55.50
2018-07-28T10:31:05.118Z,55.60
2018-07-28T10:33:33.509Z,55.90
2018-07-28T10:38:29.888Z,54.10
2018-07-28T10:40:58.248Z,54.40
2018-07-28T10:43:26.671Z,54.60
2018-07-28T10:45:55.257Z,53.60
2018-07-28T10:48:24.037Z,53.50
2018-07-28T10:50:52.984Z,52.80
2018-07-28T10:53:21.380Z,52.40
2018-07-28T10:55:49.766Z,52.70
2018-07-28T10:58:18.173Z,52.80
2018-07-28T11:00:46.609Z,52.90
2018-07-28T11:03:14.991Z,52.40
2018-07-28T11:05:43.309Z,52.30
2018-07-28T11:08:11.648Z,49.50
2018-07-28T11:10:40.186Z,50.50
2018-07-28T11:13:08.616Z,50.60
2018-07-28T11:15:36.964Z,50.40
2018-07-28T11:18:05.466Z,49.80
2018-07-28T11:23:01.954Z,50.20
2018-07-28T11:25:30.320Z,50.70
2018-07-28T11:27:58.803Z,50.00
2018-07-28T11:30:27.245Z,50.70
2018-07-28T11:33:06.789Z,50.00
2018-07-28T11:35:46.453Z,49.80
2018-07-28T11:38:29.037Z,49.80
2018-07-28T11:41:08.866Z,50.30
2018-07-28T11:43:48.512Z,50.50
2018-07-28T11:46:16.926Z,50.10
2018-07-28T11:48:45.271Z,50.50
2018-07-28T11:51:13.586Z,50.70
2018-07-28T11:53:42.552Z,51.10
2018-07-28T11:56:10.988Z,51.30
2018-07-28T11:58:39.320Z,52.20
2018-07-28T12:01:07.731Z,52.00
2018-07-28T12:03:36.187Z,53.40
2018-07-28T12:06:04.606Z,56.80
2018-07-28T12:08:32.972Z,57.70
2018-07-28T12:11:01.417Z,65.80
2018-07-28T12:13:29.805Z,68.00
2018-07-28T12:15:58.107Z,71.40
2018-07-28T12:18:26.540Z,71.70
2018-07-28T12:20:55.006Z,75.10
2018-07-28T12:23:23.406Z,75.40
2018-07-28T12:25:51.800Z,75.40
2018-07-28T12:28:20.269Z,76.50
2018-07-28T12:30:48.716Z,76.20
2018-07-28T12:33:17.099Z,76.60
2018-07-28T12:35:45.468Z,78.90
2018-07-28T12:38:13.868Z,78.10
2018-07-28T12:40:42.239Z,78.50
2018-07-28T12:43:10.604Z,79.60
2018-07-28T12:45:38.945Z,79.20
2018-07-28T12:48:07.364Z,80.60
2018-07-28T12:50:35.735Z,81.60
2018-07-28T12:53:06.552Z,79.80
2018-07-28T12:55:40.948Z,80.70
2018-07-28T13:01:12.140Z,80.30
2018-07-28T13:03:43.934Z,81.10
2018-07-28T13:06:30.060Z,81.50
2018-07-28T13:09:01.670Z,79.30
2018-07-28T13:11:38.204Z,80.20
2018-07-28T13:14:07.218Z,80.10
2018-07-28T13:16:44.508Z,78.30
2018-07-28T13:19:19.764Z,78.00
2018-07-28T13:24:39.491Z,79.60
2018-07-28T13:27:10.804Z,78.10
2018-07-28T13:29:43.782Z,77.30
2018-07-28T13:32:13.272Z,73.30
2018-07-28T13:34:48.490Z,75.20
2018-07-28T13:37:16.986Z,77.10
2018-07-28T13:39:45.365Z,74.80
2018-07-28T13:42:17.065Z,73.70
2018-07-28T13:44:49.278Z,71.50
2018-07-28T13:47:18.675Z,72.30
2018-07-28T13:49:46.986Z,72.60
2018-07-28T13:52:17.647Z,70.60
2018-07-28T13:54:49.129Z,70.40
2018-07-28T13:57:28.845Z,69.70
2018-07-28T14:06:13.038Z,67.70
2018-07-28T14:08:41.443Z,67.80
2018-07-28T14:11:09.796Z,64.50
2018-07-28T14:13:38.280Z,63.50
2018-07-28T14:16:06.700Z,63.50
2018-07-28T14:18:35.290Z,64.30
2018-07-28T14:21:03.619Z,62.00
2018-07-28T14:23:32.223Z,63.00
2018-07-28T14:26:00.626Z,60.60
2018-07-28T14:28:29.117Z,61.40
2018-07-28T14:30:57.716Z,61.90
2018-07-28T14:33:26.224Z,60.30
2018-07-28T14:35:54.811Z,60.90
2018-07-28T14:38:23.443Z,59.30
2018-07-28T14:40:52.991Z,57.60
2018-07-28T14:43:21.422Z,58.40
2018-07-28T14:45:50.033Z,57.90
2018-07-28T14:48:18.517Z,57.60
2018-07-28T14:50:47.128Z,57.30
2018-07-28T14:53:15.790Z,57.30
2018-07-28T14:55:44.216Z,56.10
2018-07-28T14:58:12.611Z,56.10
2018-07-28T15:00:41.045Z,56.60
2018-07-28T15:05:37.629Z,55.80
2018-07-28T15:08:06.076Z,56.10
2018-07-28T15:10:34.463Z,54.10
2018-07-28T15:13:02.914Z,54.20
2018-07-28T15:15:31.392Z,53.10
2018-07-28T15:18:00.004Z,55.90
2018-07-28T15:20:28.395Z,56.00
2018-07-28T15:22:56.808Z,53.80
2018-07-28T15:25:25.206Z,53.10
2018-07-28T15:27:53.617Z,52.10
2018-07-28T15:30:21.968Z,52.00
2018-07-28T15:32:50.342Z,51.20
2018-07-28T15:35:18.829Z,52.90
2018-07-28T15:37:47.179Z,52.10
2018-07-28T15:40:15.679Z,51.40
2018-07-28T15:42:44.122Z,50.60
2018-07-28T15:45:12.700Z,51.80
2018-07-28T15:47:41.167Z,52.40
2018-07-28T15:50:09.500Z,51.00
2018-07-28T15:52:37.851Z,51.80
2018-07-28T15:55:06.278Z,52.90
2018-07-28T15:57:34.676Z,51.50
2018-07-28T16:00:03.139Z,51.00
2018-07-28T16:02:31.472Z,51.80
2018-07-28T16:04:59.873Z,51.90
2018-07-28T16:07:28.313Z,50.90
2018-07-28T16:09:56.753Z,48.70
2018-07-28T16:12:25.222Z,48.50
2018-07-28T16:14:53.591Z,48.20
2018-07-28T16:17:22.016Z,50.00
2018-07-28T16:19:50.480Z,54.00
2018-07-28T16:22:18.817Z,61.50
2018-07-28T16:24:47.301Z,65.40
2018-07-28T16:27:15.719Z,65.60
2018-07-28T16:29:44.128Z,70.30
2018-07-28T16:32:12.672Z,69.10
2018-07-28T16:34:41.069Z,73.10
2018-07-28T16:37:09.440Z,74.10
2018-07-28T16:39:37.853Z,75.20
2018-07-28T16:42:06.292Z,74.20
2018-07-28T16:44:34.714Z,75.00
2018-07-28T16:47:03.080Z,75.20
2018-07-28T16:49:31.513Z,74.00
2018-07-28T16:51:59.928Z,75.40
2018-07-28T16:54:28.279Z,74.20
2018-07-28T16:56:56.678Z,74.00
2018-07-28T16:59:25.091Z,74.80
2018-07-28T17:04:21.521Z,75.30
2018-07-28T17:06:49.866Z,72.90
2018-07-28T17:09:18.169Z,73.20
2018-07-28T17:11:46.594Z,73.40
2018-07-28T17:14:14.987Z,75.20
2018-07-28T17:16:43.352Z,73.40
2018-07-28T17:19:11.732Z,74.40
2018-07-28T17:21:40.136Z,74.30
2018-07-28T17:24:08.507Z,75.10
2018-07-28T17:29:07.044Z,75.40
2018-07-28T17:31:35.444Z,74.60
2018-07-28T17:34:03.864Z,74.60
2018-07-28T17:36:33.105Z,73.80
2018-07-28T17:39:01.476Z,74.90
2018-07-28T17:41:30.008Z,73.00
2018-07-28T17:43:58.393Z,73.60
2018-07-28T17:46:26.935Z,74.50
2018-07-28T17:48:55.743Z,74.70
2018-07-28T17:51:24.105Z,73.90
2018-07-28T17:53:52.529Z,74.80
2018-07-28T17:56:20.944Z,75.30
2018-07-28T17:58:49.260Z,75.00
2018-07-28T18:01:17.609Z,75.50
2018-07-28T18:03:51.134Z,75.80
2018-07-28T18:06:19.504Z,74.90
2018-07-28T18:08:47.916Z,75.30
2018-07-28T18:11:16.382Z,75.30
2018-07-28T18:13:44.664Z,75.90
2018-07-28T18:16:13.181Z,75.70
2018-07-28T18:18:42.336Z,76.20
2018-07-28T18:21:10.768Z,76.50
2018-07-28T18:23:40.164Z,75.80
2018-07-28T18:28:36.702Z,76.70
2018-07-28T18:31:05.086Z,76.40
2018-07-28T18:33:33.404Z,76.90
2018-07-28T18:36:01.744Z,75.80
2018-07-28T18:38:30.091Z,76.40
2018-07-28T18:40:58.551Z,77.00
2018-07-28T18:43:27.648Z,76.70
2018-07-28T18:45:56.154Z,76.90
2018-07-28T18:48:24.681Z,77.20
2018-07-28T18:50:54.845Z,78.30
2018-07-28T18:53:23.280Z,78.10
2018-07-28T18:55:51.760Z,77.60
2018-07-28T18:58:20.120Z,77.40
2018-07-28T19:00:48.467Z,77.20
2018-07-28T19:03:16.818Z,77.00
2018-07-28T19:05:45.260Z,77.70
2018-07-28T19:08:13.600Z,78.40
2018-07-28T19:10:42.052Z,78.10
2018-07-28T19:13:15.687Z,79.80
2018-07-28T19:15:44.011Z,78.50
2018-07-28T19:18:17.851Z,78.30
2018-07-28T19:20:46.120Z,78.40
2018-07-28T19:23:19.927Z,78.40
2018-07-28T19:25:48.290Z,78.40
2018-07-28T19:28:22.006Z,78.20
2018-07-28T19:30:50.374Z,78.20
2018-07-28T19:33:18.748Z,78.30
2018-07-28T19:35:52.560Z,78.20
2018-07-28T19:38:20.971Z,78.50
2018-07-28T19:40:49.336Z,78.50
2018-07-28T19:43:17.681Z,79.20
2018-07-28T19:45:46.049Z,79.40
2018-07-28T19:48:14.420Z,80.00
2018-07-28T19:50:42.800Z,78.90
2018-07-28T19:53:11.303Z,78.60
2018-07-28T19:55:39.650Z,78.80
2018-07-28T19:58:08.047Z,79.00
2018-07-28T20:00:36.423Z,79.00
2018-07-28T20:03:04.835Z,78.80
2018-07-28T20:05:33.280Z,78.90
2018-07-28T20:08:01.908Z,79.50
2018-07-28T20:10:30.324Z,79.40
2018-07-28T20:12:58.687Z,79.60
2018-07-28T20:15:27.084Z,79.70
2018-07-28T20:17:58.828Z,79.90
2018-07-28T20:20:27.544Z,80.20
2018-07-28T20:22:55.912Z,80.00
2018-07-28T20:25:24.312Z,80.10
2018-07-28T20:27:53.509Z,79.90
2018-07-28T20:30:21.918Z,79.90
2018-07-28T20:32:50.239Z,80.30
2018-07-28T20:35:18.663Z,80.50
2018-07-28T20:37:47.587Z,80.50
2018-07-28T20:40:16.249Z,80.70
2018-07-28T20:45:13.663Z,80.30
2018-07-28T20:47:42.752Z,80.70
2018-07-28T20:50:11.124Z,80.70
2018-07-28T20:52:40.242Z,80.90
2018-07-28T20:55:08.595Z,80.90
2018-07-28T20:57:36.908Z,81.30
2018-07-28T21:00:05.276Z,81.00
2018-07-28T21:02:33.797Z,81.00
2018-07-28T21:05:02.306Z,81.50
2018-07-28T21:07:31.339Z,80.70
2018-07-28T21:09:59.746Z,80.90
2018-07-28T21:12:28.176Z,80.80
2018-07-28T21:14:56.887Z,80.90
2018-07-28T21:17:25.548Z,80.60
2018-07-28T21:19:54.203Z,80.70
2018-07-28T21:22:22.711Z,80.60
2018-07-28T21:24:51.116Z,80.90
2018-07-28T21:27:19.524Z,80.80
2018-07-28T21:29:47.896Z,80.50
2018-07-28T21:32:16.292Z,80.90
2018-07-28T21:34:44.649Z,80.80
2018-07-28T21:37:13.018Z,80.70
2018-07-28T21:39:41.420Z,80.70
2018-07-28T21:42:09.871Z,79.60
2018-07-28T21:44:38.260Z,79.30
2018-07-28T21:47:06.731Z,79.50
2018-07-28T21:49:35.096Z,79.90
2018-07-28T21:52:03.814Z,79.60
2018-07-28T21:54:32.204Z,79.50
2018-07-28T21:57:00.548Z,79.80
2018-07-28T21:59:28.929Z,79.30
2018-07-28T22:01:57.627Z,80.00
2018-07-28T22:04:29.013Z,79.70
2018-07-28T22:06:57.387Z,80.40
2018-07-28T22:09:25.761Z,79.00
2018-07-28T22:11:54.104Z,78.50
2018-07-28T22:14:22.464Z,79.10
2018-07-28T22:16:50.854Z,77.10
2018-07-28T22:19:19.229Z,77.80
2018-07-28T22:21:47.578Z,78.40
2018-07-28T22:26:44.449Z,78.10
2018-07-28T22:29:12.876Z,78.20
2018-07-28T22:31:41.280Z,78.50
2018-07-28T22:34:09.723Z,78.10
2018-07-28T22:36:38.076Z,78.50
2018-07-28T22:39:07.741Z,78.10
2018-07-28T22:41:36.164Z,77.20
2018-07-28T22:44:04.531Z,77.40
2018-07-28T22:46:32.883Z,77.90
2018-07-28T22:49:01.313Z,77.60
2018-07-28T22:51:29.661Z,78.10
2018-07-28T22:53:58.025Z,78.10
2018-07-28T22:56:27.802Z,78.10
2018-07-28T22:58:56.202Z,78.40
2018-07-28T23:01:24.570Z,78.50
2018-07-28T23:03:53.012Z,78.40
2018-07-28T23:06:21.388Z,78.70
2018-07-28T23:08:49.708Z,78.80
2018-07-28T23:11:18.068Z,78.40
2018-07-28T23:13:46.432Z,79.10
2018-07-28T23:16:14.787Z,79.40
2018-07-28T23:18:43.275Z,79.70
2018-07-28T23:21:11.631Z,79.70
2018-07-28T23:23:39.999Z,79.80
2018-07-28T23:26:08.375Z,80.30
2018-07-28T23:28:36.776Z,80.10
2018-07-28T23:31:05.123Z,80.40
2018-07-28T23:33:33.466Z,80.10
2018-07-28T23:36:01.872Z,80.50
2018-07-28T23:38:30.300Z,80.50
2018-07-28T23:40:58.763Z,80.50
2018-07-28T23:43:27.156Z,80.30
2018-07-28T23:45:55.500Z,80.30
2018-07-28T23:48:23.860Z,80.80
2018-07-28T23:50:52.404Z,80.20
2018-07-28T23:53:20.788Z,80.40
2018-07-28T23:55:49.212Z,80.40
2018-07-28T23:58:17.588Z,80.50
